createdAt,value
2019-04-04T00:01:19.339Z,19.62
2019-04-04T00:03:47.872Z,18.35
2019-04-04T00:06:16.411Z,18.62
2019-04-04T00:08:45.091Z,18.48
2019-04-04T00:11:13.557Z,17.65
2019-04-04T00:13:42.606Z,19.20
2019-04-04T00:16:11.209Z,18.27
2019-04-04T00:18:39.674Z,19.73
2019-04-04T00:21:10.367Z,18.57
2019-04-04T00:23:38.603Z,17.82
2019-04-04T00:26:08.854Z,18.55
2019-04-04T00:28:37.492Z,17.65
2019-04-04T00:31:06.030Z,18.85
2019-04-04T00:33:34.623Z,19.77
2019-04-04T00:36:03.366Z,18.25
2019-04-04T00:38:32.182Z,18.83
2019-04-04T00:41:00.763Z,17.48
2019-04-04T00:43:29.251Z,19.17
2019-04-04T00:46:00.454Z,17.82
2019-04-04T00:48:28.069Z,19.07
2019-04-04T00:50:56.612Z,18.30
2019-04-04T00:53:25.187Z,17.33
2019-04-04T00:55:53.645Z,18.30
2019-04-04T00:58:22.136Z,18.62
2019-04-04T01:00:50.673Z,17.87
2019-04-04T01:03:20.788Z,19.35
2019-04-04T01:05:49.390Z,17.17
2019-04-04T01:08:17.903Z,18.63
2019-04-04T01:10:49.522Z,17.20
2019-04-04T01:13:16.806Z,17.80
2019-04-04T01:15:45.476Z,17.45
2019-04-04T01:18:13.936Z,18.00
2019-04-04T01:20:42.467Z,18.57
2019-04-04T01:23:11.056Z,18.48
2019-04-04T01:25:39.527Z,15.98
2019-04-04T01:28:08.732Z,17.60
2019-04-04T01:30:37.793Z,16.60
2019-04-04T01:33:06.406Z,16.55
2019-04-04T01:35:36.217Z,16.62
2019-04-04T01:38:04.880Z,17.20
2019-04-04T01:40:33.864Z,17.75
2019-04-04T01:43:02.557Z,18.15
2019-04-04T01:45:31.172Z,17.25
2019-04-04T01:47:59.771Z,17.62
2019-04-04T01:50:28.238Z,16.90
2019-04-04T01:52:58.824Z,17.62
2019-04-04T01:55:26.900Z,17.00
2019-04-04T01:57:55.507Z,16.77
2019-04-04T02:00:24.152Z,17.37
2019-04-04T02:02:55.617Z,16.20
2019-04-04T02:05:26.715Z,17.48
2019-04-04T02:07:54.603Z,17.23
2019-04-04T02:10:23.206Z,17.25
2019-04-04T02:12:51.751Z,15.60
2019-04-04T02:15:20.293Z,16.80
2019-04-04T02:17:48.791Z,16.77
2019-04-04T02:20:17.328Z,17.57
2019-04-04T02:22:45.868Z,16.15
2019-04-04T02:25:14.483Z,16.30
2019-04-04T02:27:43.019Z,16.23
2019-04-04T02:30:15.218Z,16.48
2019-04-04T02:32:42.122Z,16.30
2019-04-04T02:35:11.748Z,16.57
2019-04-04T02:37:40.850Z,15.98
2019-04-04T02:40:10.273Z,16.40
2019-04-04T02:42:39.644Z,17.37
2019-04-04T02:45:08.703Z,16.97
2019-04-04T02:47:37.722Z,16.10
2019-04-04T02:50:08.561Z,15.57
2019-04-04T02:52:37.175Z,15.83
2019-04-04T02:55:06.485Z,16.60
2019-04-04T02:57:35.745Z,15.73
2019-04-04T03:00:05.696Z,16.80
2019-04-04T03:02:36.172Z,14.80
2019-04-04T03:05:05.946Z,15.83
2019-04-04T03:07:34.563Z,15.85
2019-04-04T03:10:03.531Z,15.53
2019-04-04T03:12:32.535Z,16.33
2019-04-04T03:15:01.235Z,17.57
2019-04-04T03:17:32.681Z,18.45
2019-04-04T03:20:00.137Z,17.82
2019-04-04T03:22:28.664Z,17.32
2019-04-04T03:24:57.200Z,17.85
2019-04-04T03:27:27.410Z,18.03
2019-04-04T03:29:55.926Z,17.77
2019-04-04T03:32:24.739Z,17.20
2019-04-04T03:34:53.354Z,18.30
2019-04-04T03:37:21.901Z,17.73
2019-04-04T03:39:52.963Z,17.87
2019-04-04T03:42:20.922Z,17.07
2019-04-04T03:44:52.833Z,18.07
2019-04-04T03:47:19.739Z,18.12
2019-04-04T03:49:48.195Z,18.10
2019-04-04T03:52:16.734Z,17.82
2019-04-04T03:54:45.343Z,18.37
2019-04-04T03:57:13.882Z,17.70
2019-04-04T03:59:42.365Z,19.43
2019-04-04T04:02:10.976Z,17.65
2019-04-04T04:04:39.632Z,19.37
2019-04-04T04:07:08.114Z,18.23
2019-04-04T04:09:36.559Z,19.40
2019-04-04T04:12:05.172Z,19.43
2019-04-04T04:14:33.904Z,19.32
2019-04-04T04:17:02.488Z,19.70
2019-04-04T04:19:31.538Z,20.10
2019-04-04T04:22:00.314Z,20.80
2019-04-04T04:24:29.849Z,20.97
2019-04-04T04:26:59.021Z,20.10
2019-04-04T04:29:29.866Z,20.20
2019-04-04T04:31:57.787Z,20.80
2019-04-04T04:34:26.316Z,19.33
2019-04-04T04:36:54.975Z,19.62
2019-04-04T04:39:23.513Z,20.97
2019-04-04T04:41:54.194Z,21.10
2019-04-04T04:44:22.445Z,21.48
2019-04-04T04:46:51.244Z,19.33
2019-04-04T04:49:23.179Z,21.03
2019-04-04T04:51:50.051Z,19.13
2019-04-04T04:54:20.466Z,19.93
2019-04-04T04:56:48.919Z,19.33
2019-04-04T04:59:17.381Z,20.17
2019-04-04T05:01:45.925Z,22.53
2019-04-04T05:04:15.634Z,21.93
2019-04-04T05:06:44.102Z,23.33
2019-04-04T05:09:14.107Z,20.57
2019-04-04T05:11:42.920Z,20.90
2019-04-04T05:14:11.545Z,21.60
2019-04-04T05:16:40.149Z,21.20
2019-04-04T05:19:08.616Z,22.45
2019-04-04T05:21:37.174Z,21.03
2019-04-04T05:24:05.840Z,21.40
2019-04-04T05:26:35.534Z,21.37
2019-04-04T05:29:04.803Z,20.27
2019-04-04T05:31:33.396Z,21.60
2019-04-04T05:34:02.048Z,20.52
2019-04-04T05:36:30.639Z,20.37
2019-04-04T05:38:59.273Z,18.50
2019-04-04T05:41:28.132Z,19.02
2019-04-04T05:43:58.111Z,19.10
2019-04-04T05:46:26.658Z,19.45
2019-04-04T05:48:55.213Z,17.40
2019-04-04T05:51:23.754Z,20.30
2019-04-04T05:53:52.276Z,18.48
2019-04-04T05:56:23.926Z,15.95
2019-04-04T05:58:53.143Z,16.30
2019-04-04T06:01:22.873Z,16.10
2019-04-04T06:03:51.508Z,16.10
2019-04-04T06:06:20.057Z,17.42
2019-04-04T06:08:49.685Z,16.17
2019-04-04T06:11:20.858Z,15.78
2019-04-04T06:13:48.651Z,14.53
2019-04-04T06:16:17.137Z,13.75
2019-04-04T06:18:45.611Z,15.35
2019-04-04T06:21:14.155Z,15.23
2019-04-04T06:23:42.699Z,14.18
2019-04-04T06:26:11.243Z,14.45
2019-04-04T06:28:39.869Z,14.98
2019-04-04T06:31:08.548Z,13.28
2019-04-04T06:33:37.162Z,14.80
2019-04-04T06:36:05.773Z,14.78
2019-04-04T06:38:34.322Z,12.58
2019-04-04T06:41:03.063Z,13.65
2019-04-04T06:43:31.656Z,13.55
2019-04-04T06:46:00.197Z,15.43
2019-04-04T06:48:29.384Z,14.30
2019-04-04T06:50:58.990Z,14.53
2019-04-04T06:53:27.468Z,14.03
2019-04-04T06:55:56.102Z,14.80
2019-04-04T06:58:24.639Z,16.40
2019-04-04T07:00:53.297Z,16.73
2019-04-04T07:03:21.917Z,15.55
2019-04-04T07:05:50.533Z,15.70
2019-04-04T07:08:19.084Z,13.83
2019-04-04T07:10:57.319Z,18.10
2019-04-04T07:13:22.004Z,14.20
2019-04-04T07:16:05.633Z,14.85
2019-04-04T07:18:20.114Z,15.03
2019-04-04T07:20:48.973Z,13.48
2019-04-04T07:23:17.652Z,14.25
2019-04-04T07:25:46.266Z,13.35
2019-04-04T07:28:19.091Z,12.13
2019-04-04T07:30:47.695Z,13.32
2019-04-04T07:33:16.313Z,13.95
2019-04-04T07:35:44.797Z,14.70
2019-04-04T07:38:13.346Z,14.33
2019-04-04T07:40:41.841Z,14.07
2019-04-04T07:43:10.391Z,12.95
2019-04-04T07:45:38.854Z,14.65
2019-04-04T07:48:07.735Z,14.53
2019-04-04T07:50:36.354Z,12.88
2019-04-04T07:53:05.347Z,12.90
2019-04-04T07:55:34.240Z,13.93
2019-04-04T07:58:02.778Z,13.65
2019-04-04T08:00:31.494Z,14.70
2019-04-04T08:03:00.031Z,13.38
2019-04-04T08:05:28.659Z,13.85
2019-04-04T08:07:57.137Z,13.22
2019-04-04T08:10:25.709Z,14.03
2019-04-04T08:12:54.245Z,14.07
2019-04-04T08:15:22.857Z,13.83
2019-04-04T08:17:51.422Z,15.80
2019-04-04T08:20:20.043Z,14.85
2019-04-04T08:22:48.612Z,15.32
2019-04-04T08:25:17.310Z,15.75
2019-04-04T08:27:45.854Z,16.12
2019-04-04T08:30:15.021Z,14.63
2019-04-04T08:32:43.642Z,14.90
2019-04-04T08:35:12.384Z,14.73
2019-04-04T08:37:41.114Z,15.10
2019-04-04T08:40:10.561Z,14.80
2019-04-04T08:42:39.264Z,14.50
2019-04-04T08:45:08.679Z,15.38
2019-04-04T08:47:37.282Z,12.78
2019-04-04T08:50:07.219Z,15.85
2019-04-04T08:52:35.944Z,15.93
2019-04-04T08:55:06.156Z,14.75
2019-04-04T08:57:34.893Z,15.00
2019-04-04T09:00:04.707Z,13.93
2019-04-04T09:02:33.289Z,14.03
2019-04-04T09:05:11.939Z,15.05
2019-04-04T09:07:32.049Z,15.32
2019-04-04T09:10:01.756Z,14.28
2019-04-04T09:12:30.296Z,13.80
2019-04-04T09:14:58.910Z,14.35
2019-04-04T09:17:27.551Z,15.93
2019-04-04T09:19:56.101Z,15.53
2019-04-04T09:22:24.735Z,15.53
2019-04-04T09:24:53.364Z,14.85
2019-04-04T09:27:21.977Z,15.63
2019-04-04T09:29:50.529Z,15.75
2019-04-04T09:32:19.184Z,15.88
2019-04-04T09:34:47.800Z,16.07
2019-04-04T09:37:16.415Z,16.57
2019-04-04T09:39:45.058Z,17.35
2019-04-04T09:42:13.668Z,16.57
2019-04-04T09:44:42.240Z,16.35
2019-04-04T09:47:10.859Z,16.93
2019-04-04T09:49:39.478Z,15.80
2019-04-04T09:52:08.205Z,18.42
2019-04-04T09:54:36.813Z,16.25
2019-04-04T09:57:05.583Z,16.62
2019-04-04T09:59:34.171Z,16.87
2019-04-04T10:02:02.806Z,16.30
2019-04-04T10:04:31.412Z,17.23
2019-04-04T10:07:00.072Z,14.87
2019-04-04T10:09:28.649Z,15.25
2019-04-04T10:11:57.189Z,15.23
2019-04-04T10:14:25.841Z,14.38
2019-04-04T10:16:54.447Z,16.85
2019-04-04T10:19:23.089Z,14.90
2019-04-04T10:21:51.711Z,14.03
2019-04-04T10:24:20.248Z,15.63
2019-04-04T10:26:48.794Z,15.45
2019-04-04T10:29:17.409Z,17.37
2019-04-04T10:31:46.047Z,16.17
2019-04-04T10:34:15.683Z,14.07
2019-04-04T10:36:44.161Z,15.88
2019-04-04T10:39:13.775Z,15.85
2019-04-04T10:41:42.817Z,14.53
2019-04-04T10:44:11.342Z,16.17
2019-04-04T10:46:39.969Z,15.38
2019-04-04T10:49:08.579Z,15.30
2019-04-04T10:51:37.430Z,14.55
2019-04-04T10:54:06.072Z,17.02
2019-04-04T10:56:34.638Z,15.78
2019-04-04T10:59:03.285Z,15.00
2019-04-04T11:01:31.906Z,15.85
2019-04-04T11:04:00.452Z,15.65
2019-04-04T11:06:29.101Z,15.83
2019-04-04T11:08:57.708Z,15.15
2019-04-04T11:11:26.353Z,16.73
2019-04-04T11:13:54.995Z,15.98
2019-04-04T11:16:29.988Z,17.05
2019-04-04T11:18:53.891Z,16.05
2019-04-04T11:21:22.490Z,17.00
2019-04-04T11:23:51.030Z,17.65
2019-04-04T11:26:19.578Z,16.95
2019-04-04T11:28:48.226Z,18.10
2019-04-04T11:31:16.825Z,17.32
2019-04-04T11:33:45.472Z,17.30
2019-04-04T11:36:14.088Z,17.57
2019-04-04T11:38:44.147Z,18.67
2019-04-04T11:41:12.975Z,17.45
2019-04-04T11:43:41.888Z,18.02
2019-04-04T11:46:10.497Z,16.12
2019-04-04T11:48:40.365Z,17.12
2019-04-04T11:51:08.989Z,17.57
2019-04-04T11:53:37.620Z,17.42
2019-04-04T11:56:06.145Z,18.10
2019-04-04T11:58:34.759Z,16.57
2019-04-04T12:01:05.010Z,19.85
2019-04-04T12:03:33.553Z,17.37
2019-04-04T12:06:02.194Z,17.48
2019-04-04T12:08:30.844Z,15.63
2019-04-04T12:10:59.457Z,16.30
2019-04-04T12:13:28.070Z,17.50
2019-04-04T12:15:56.677Z,15.55
2019-04-04T12:18:25.252Z,15.85
2019-04-04T12:20:53.905Z,16.42
2019-04-04T12:23:22.597Z,15.68
2019-04-04T12:25:51.141Z,16.37
2019-04-04T12:28:19.762Z,15.95
2019-04-04T12:30:48.319Z,14.45
2019-04-04T12:33:16.912Z,15.88
2019-04-04T12:35:45.445Z,15.32
2019-04-04T12:38:13.989Z,16.25
2019-04-04T12:40:42.532Z,16.10
2019-04-04T12:43:11.222Z,16.48
2019-04-04T12:45:39.825Z,15.32
2019-04-04T12:48:09.258Z,16.75
2019-04-04T12:50:38.067Z,15.40
2019-04-04T12:53:06.781Z,16.40
2019-04-04T12:55:35.467Z,16.50
2019-04-04T12:58:04.077Z,17.48
2019-04-04T13:00:32.616Z,17.32
2019-04-04T13:03:01.161Z,18.30
2019-04-04T13:05:29.799Z,16.48
2019-04-04T13:07:58.341Z,17.67
2019-04-04T13:10:33.055Z,19.02
2019-04-04T13:12:57.384Z,16.48
2019-04-04T13:15:26.023Z,15.83
2019-04-04T13:17:54.497Z,16.27
2019-04-04T13:20:23.147Z,17.00
2019-04-04T13:22:51.838Z,16.67
2019-04-04T13:25:20.539Z,17.57
2019-04-04T13:27:49.080Z,16.82
2019-04-04T13:30:19.291Z,15.70
2019-04-04T13:32:47.836Z,16.52
2019-04-04T13:35:17.073Z,17.10
2019-04-04T13:37:45.912Z,16.25
2019-04-04T13:40:14.953Z,15.93
2019-04-04T13:42:43.570Z,16.87
2019-04-04T13:45:12.198Z,16.52
2019-04-04T13:47:40.823Z,16.40
2019-04-04T13:50:12.681Z,18.25
2019-04-04T13:52:41.669Z,18.37
2019-04-04T13:55:10.586Z,18.25
2019-04-04T13:57:39.614Z,16.52
2019-04-04T14:00:10.060Z,17.85
2019-04-04T14:02:38.813Z,18.87
2019-04-04T14:05:14.034Z,18.20
2019-04-04T14:07:43.520Z,17.35
2019-04-04T14:10:11.721Z,17.48
2019-04-04T14:12:41.436Z,18.32
2019-04-04T14:15:11.476Z,18.80
2019-04-04T14:17:43.341Z,18.57
2019-04-04T14:20:11.033Z,17.17
2019-04-04T14:22:39.763Z,18.48
2019-04-04T14:25:09.879Z,17.25
2019-04-04T14:27:38.425Z,16.30
2019-04-04T14:30:07.937Z,17.60
2019-04-04T14:32:36.549Z,17.37
2019-04-04T14:35:07.532Z,16.48
2019-04-04T14:37:36.150Z,17.27
2019-04-04T14:40:06.668Z,18.37
2019-04-04T14:42:35.322Z,18.52
2019-04-04T14:45:06.605Z,19.00
2019-04-04T14:47:35.686Z,20.12
2019-04-04T14:50:07.293Z,19.52
2019-04-04T14:52:39.059Z,17.20
2019-04-04T14:55:07.165Z,16.77
2019-04-04T14:57:35.779Z,18.45
2019-04-04T15:00:08.263Z,18.42
2019-04-04T15:02:36.876Z,18.12
2019-04-04T15:05:06.437Z,17.90
2019-04-04T15:07:36.662Z,18.40
2019-04-04T15:10:06.284Z,18.00
2019-04-04T15:12:34.892Z,18.00
2019-04-04T15:15:04.034Z,17.55
2019-04-04T15:17:32.755Z,18.23
2019-04-04T15:20:01.316Z,17.32
2019-04-04T15:22:31.951Z,18.90
2019-04-04T15:25:00.135Z,19.42
2019-04-04T15:27:28.748Z,19.57
2019-04-04T15:29:57.292Z,19.65
2019-04-04T15:32:25.921Z,18.73
2019-04-04T15:34:54.389Z,31.23
2019-04-04T15:37:23.002Z,18.45
2019-04-04T15:39:51.593Z,17.50
2019-04-04T15:42:20.196Z,18.40
2019-04-04T15:44:49.095Z,16.80
2019-04-04T15:47:17.709Z,15.55
2019-04-04T15:49:46.358Z,16.23
2019-04-04T15:52:14.929Z,17.12
2019-04-04T15:54:43.401Z,16.82
2019-04-04T15:57:12.167Z,16.40
2019-04-04T15:59:40.718Z,15.23
2019-04-04T16:02:09.358Z,15.95
2019-04-04T16:04:37.910Z,18.77
2019-04-04T16:07:08.110Z,20.90
2019-04-04T16:09:36.676Z,19.50
2019-04-04T16:12:05.322Z,21.75
2019-04-04T16:14:33.793Z,20.12
2019-04-04T16:17:02.420Z,18.35
2019-04-04T16:19:32.683Z,20.23
2019-04-04T16:22:01.328Z,21.00
2019-04-04T16:24:29.870Z,19.82
2019-04-04T16:26:58.496Z,20.57
2019-04-04T16:29:27.167Z,18.45
2019-04-04T16:31:55.785Z,19.52
2019-04-04T16:34:24.382Z,19.45
2019-04-04T16:36:52.971Z,19.65
2019-04-04T16:39:21.607Z,21.20
2019-04-04T16:42:01.464Z,19.55
2019-04-04T16:44:20.641Z,19.77
2019-04-04T16:46:49.252Z,19.90
2019-04-04T16:49:17.733Z,18.65
2019-04-04T16:51:46.390Z,18.27
2019-04-04T16:54:14.934Z,19.27
2019-04-04T16:56:43.490Z,18.92
2019-04-04T16:59:12.017Z,19.17
2019-04-04T17:01:43.376Z,21.25
2019-04-04T17:04:11.984Z,23.80
2019-04-04T17:06:40.541Z,24.85
2019-04-04T17:09:09.140Z,25.80
2019-04-04T17:11:37.781Z,28.23
2019-04-04T17:14:06.526Z,24.75
2019-04-04T17:16:35.154Z,23.30
2019-04-04T17:19:03.776Z,24.50
2019-04-04T17:21:39.892Z,21.17
2019-04-04T17:24:08.542Z,22.60
2019-04-04T17:26:37.148Z,21.60
2019-04-04T17:29:05.762Z,21.10
2019-04-04T17:31:34.410Z,21.15
2019-04-04T17:34:03.557Z,23.22
2019-04-04T17:36:32.869Z,20.82
2019-04-04T17:39:01.887Z,21.45
2019-04-04T17:41:30.702Z,21.77
2019-04-04T17:43:59.319Z,25.65
2019-04-04T17:46:28.429Z,24.18
2019-04-04T17:48:57.557Z,24.67
2019-04-04T17:51:26.232Z,24.25
2019-04-04T17:53:54.779Z,24.75
2019-04-04T17:56:23.742Z,24.27
2019-04-04T17:58:52.437Z,24.20
2019-04-04T18:01:22.742Z,24.92
2019-04-04T18:03:51.350Z,27.17
2019-04-04T18:06:20.004Z,27.70
2019-04-04T18:08:48.678Z,28.00
2019-04-04T18:11:17.285Z,25.60
2019-04-04T18:13:45.901Z,24.23
2019-04-04T18:16:15.092Z,25.12
2019-04-04T18:18:43.634Z,24.07
2019-04-04T18:21:12.188Z,20.95
2019-04-04T18:23:40.687Z,23.00
2019-04-04T18:26:09.304Z,22.93
2019-04-04T18:28:39.481Z,22.90
2019-04-04T18:31:08.322Z,21.52
2019-04-04T18:33:37.223Z,25.23
2019-04-04T18:36:05.908Z,26.85
2019-04-04T18:38:34.551Z,24.50
2019-04-04T18:41:03.235Z,25.82
2019-04-04T18:43:31.780Z,25.25
2019-04-04T18:46:00.402Z,26.33
2019-04-04T18:48:28.947Z,28.27
2019-04-04T18:50:57.501Z,29.42
2019-04-04T18:53:26.107Z,31.42
2019-04-04T18:55:54.731Z,30.12
2019-04-04T18:58:23.289Z,30.48
2019-04-04T19:00:52.044Z,39.20
2019-04-04T19:03:20.879Z,41.77
2019-04-04T19:05:49.552Z,40.55
2019-04-04T19:08:18.162Z,43.02
2019-04-04T19:10:46.684Z,33.73
2019-04-04T19:13:15.320Z,33.08
2019-04-04T19:15:44.084Z,34.20
2019-04-04T19:18:12.719Z,35.15
2019-04-04T19:20:41.328Z,33.63
2019-04-04T19:23:09.872Z,29.92
2019-04-04T19:25:38.531Z,30.32
2019-04-04T19:28:07.241Z,29.63
2019-04-04T19:30:35.891Z,30.10
2019-04-04T19:33:04.645Z,29.95
2019-04-04T19:35:33.211Z,27.10
2019-04-04T19:38:01.819Z,29.45
2019-04-04T19:40:30.476Z,30.43
2019-04-04T19:42:59.016Z,29.90
2019-04-04T19:45:27.626Z,30.92
2019-04-04T19:47:56.358Z,30.10
2019-04-04T19:50:25.242Z,28.67
2019-04-04T19:52:53.806Z,29.12
2019-04-04T19:55:22.483Z,29.48
2019-04-04T19:57:51.023Z,27.70
2019-04-04T20:00:19.709Z,27.62
2019-04-04T20:02:48.246Z,27.17
2019-04-04T20:05:17.237Z,28.80
2019-04-04T20:07:45.869Z,29.23
2019-04-04T20:10:14.952Z,28.80
2019-04-04T20:12:43.492Z,29.37
2019-04-04T20:15:12.807Z,28.92
2019-04-04T20:17:41.272Z,29.57
2019-04-04T20:20:10.203Z,29.87
2019-04-04T20:22:38.806Z,30.17
2019-04-04T20:25:08.348Z,30.20
2019-04-04T20:27:37.024Z,28.15
2019-04-04T20:30:07.934Z,27.00
2019-04-04T20:32:36.607Z,24.90
2019-04-04T20:35:08.547Z,24.92
2019-04-04T20:37:37.234Z,27.32
2019-04-04T20:40:06.925Z,26.85
2019-04-04T20:42:35.572Z,26.15
2019-04-04T20:45:05.275Z,28.20
2019-04-04T20:47:34.061Z,30.20
2019-04-04T20:50:03.447Z,27.90
2019-04-04T20:52:31.906Z,29.15
2019-04-04T20:55:00.446Z,30.05
2019-04-04T20:57:29.056Z,28.60
2019-04-04T20:59:57.868Z,28.98
2019-04-04T21:02:26.415Z,29.00
2019-04-04T21:04:55.221Z,29.50
2019-04-04T21:07:23.754Z,29.65
2019-04-04T21:09:52.402Z,29.60
2019-04-04T21:12:20.976Z,31.55
2019-04-04T21:14:49.579Z,29.27
2019-04-04T21:17:18.155Z,30.82
2019-04-04T21:19:46.690Z,32.40
2019-04-04T21:22:26.828Z,33.92
2019-04-04T21:24:45.530Z,31.23
2019-04-04T21:27:14.104Z,28.67
2019-04-04T21:29:42.573Z,29.98
2019-04-04T21:32:11.076Z,28.90
2019-04-04T21:34:39.610Z,29.40
2019-04-04T21:37:08.236Z,29.40
2019-04-04T21:39:36.893Z,28.17
2019-04-04T21:42:05.501Z,29.48
2019-04-04T21:44:34.141Z,28.60
2019-04-04T21:47:02.680Z,28.77
2019-04-04T21:49:32.874Z,30.52
2019-04-04T21:52:01.409Z,31.70
2019-04-04T21:54:29.944Z,28.40
2019-04-04T21:56:58.593Z,30.72
2019-04-04T21:59:28.864Z,31.12
2019-04-04T22:01:57.477Z,31.27
2019-04-04T22:04:26.255Z,30.08
2019-04-04T22:06:54.835Z,29.92
2019-04-04T22:09:23.515Z,28.73
2019-04-04T22:11:52.238Z,28.38
2019-04-04T22:14:21.988Z,29.25
2019-04-04T22:16:51.092Z,29.00
2019-04-04T22:19:19.754Z,29.05
2019-04-04T22:21:49.728Z,28.05
2019-04-04T22:24:18.272Z,28.32
2019-04-04T22:26:46.891Z,29.40
2019-04-04T22:29:15.412Z,28.70
2019-04-04T22:31:44.004Z,26.60
2019-04-04T22:34:12.605Z,26.27
2019-04-04T22:36:47.259Z,28.23
2019-04-04T22:39:15.835Z,27.98
2019-04-04T22:41:44.518Z,25.43
2019-04-04T22:44:13.057Z,27.60
2019-04-04T22:46:41.675Z,27.95
2019-04-04T22:49:10.279Z,28.15
2019-04-04T22:51:38.963Z,28.10
2019-04-04T22:54:07.567Z,27.15
2019-04-04T22:56:36.217Z,26.17
2019-04-04T22:59:04.934Z,26.42
2019-04-04T23:01:33.718Z,25.55
2019-04-04T23:04:02.256Z,27.32
2019-04-04T23:06:30.946Z,27.37
2019-04-04T23:08:59.563Z,27.20
2019-04-04T23:11:28.038Z,28.17
2019-04-04T23:13:56.676Z,27.58
2019-04-04T23:16:25.278Z,28.42
2019-04-04T23:18:53.918Z,29.92
2019-04-04T23:21:22.747Z,27.87
2019-04-04T23:23:51.320Z,29.90
2019-04-04T23:26:20.012Z,28.17
2019-04-04T23:28:48.595Z,29.80
2019-04-04T23:31:17.346Z,30.60
2019-04-04T23:33:45.957Z,29.52
2019-04-04T23:36:14.696Z,28.62
2019-04-04T23:38:43.306Z,28.87
2019-04-04T23:41:11.884Z,27.90
2019-04-04T23:43:40.434Z,30.70
2019-04-04T23:46:09.064Z,31.07
2019-04-04T23:48:37.537Z,31.65
2019-04-04T23:51:06.191Z,32.40
2019-04-04T23:53:34.772Z,31.93
2019-04-04T23:56:03.310Z,30.88
2019-04-04T23:58:31.774Z,30.45
